Raleigh, IL

10:12 AM CDT on August 27, 2016 (GMT -0500)
Harrisburg-Raleigh

Weather History for KHSB - March, 2014

Change the Weather History Date:

Friday, March 28, 2014

  Actual Average (KMWA) Record (KMWA)
Temperature  
Mean Temperature 52 °F -  
Max Temperature 59 °F 61 °F 80 °F (2012)
Min Temperature 45 °F 39 °F 23 °F (2015)
Degree Days  
Heating Degree Days 14    
Growing Degree Days 2 (Base 50)    
Moisture  
Dew Point 45 °F    
Average Humidity 76    
Maximum Humidity 98    
Minimum Humidity 55    
Precipitation  
Precipitation 0.63 in - - ()
Sea Level Pressure  
Sea Level Pressure 29.97 in    
Wind  
Wind Speed 10 mph (NNW)    
Max Wind Speed 16 mph    
Max Gust Speed 28 mph    
Visibility 10 miles    
Events Rain , Thunderstorm    
Averages and records for this station are not official NWS values.
T = Trace of Precipitation, MM = Missing Value Source: NWS Daily Summary

Daily Weather History Graph

Daily Weather History Graph

Search for Another Location

Airport or City:

Trip Planner

Search our weather history database for the weather conditions in past years. The results will help you decide how hot, cold, wet, or windy it might be!

Date:

Astronomy

Mar. 28, 2014 Rise Set
Actual Time 6:45 AM CDT 7:13 PM CDT
Civil Twilight 6:19 AM CDT 7:39 PM CDT
Nautical Twilight 5:48 AM CDT 8:10 PM CDT
Astronomical Twilight 5:16 AM CDT 8:42 PM CDT
Moon 5:13 AM CDT (3/28) 5:11 PM CDT (3/28)
Length of Visible Light 13h 20m
Length of Day
12h 27m
Waning Crescent, 6% of the Moon is Illuminated
Mar 28
Waning Crescent
Mar 30
New
Apr 7
First Quarter
Apr 15
Full
Apr 22
Last Quarter

Hourly Weather History & Observations

Time (CDT) Temp. Windchill Dew Point Humidity Pressure Visibility Wind Dir Wind Speed Gust Speed Precip Events Conditions
12:15 AM 53.6 °F - 51.8 °F 94% 29.78 in 10.0 mi South 16.1 mph 21.9 mph N/A   Mostly Cloudy
12:35 AM 54.0 °F - 51.8 °F 92% 29.78 in 10.0 mi South 13.8 mph 21.9 mph N/A   Overcast
12:55 AM 54.1 °F - 52.2 °F 93% 29.79 in 10.0 mi SSW 11.5 mph - N/A Thunderstorm Overcast
1:15 AM 54.7 °F - 52.7 °F 93% 29.78 in 10.0 mi SSW 12.7 mph 19.6 mph N/A   Overcast
1:35 AM 54.7 °F - 52.9 °F 94% 29.81 in 10.0 mi NW 6.9 mph - N/A Thunderstorm Thunderstorm
1:55 AM 53.8 °F - 52.7 °F 96% 29.82 in 1.8 mi SW 13.8 mph 27.6 mph 0.42 in Rain , Thunderstorm Heavy Thunderstorms and Rain
2:15 AM 53.4 °F - 52.9 °F 98% 29.78 in 10.0 mi South 15.0 mph 20.7 mph 0.01 in Rain , Thunderstorm Light Thunderstorms and Rain
2:35 AM 55.2 °F - 53.1 °F 92% 29.78 in 10.0 mi SSW 12.7 mph 20.7 mph 0.01 in   Mostly Cloudy
2:55 AM 54.5 °F - 52.9 °F 94% 29.78 in 10.0 mi SSW 5.8 mph - 0.01 in   Mostly Cloudy
3:15 AM 54.9 °F - 53.6 °F 96% 29.78 in 10.0 mi SSW 4.6 mph - N/A   Mostly Cloudy
3:35 AM 54.9 °F - 54.0 °F 97% 29.79 in 10.0 mi SSW 5.8 mph - N/A Rain Light Rain
3:55 AM 55.8 °F - 55.0 °F 97% 29.80 in 10.0 mi SW 6.9 mph - N/A   Overcast
4:15 AM 56.7 °F - 55.9 °F 97% 29.80 in 10.0 mi SW 9.2 mph - N/A   Overcast
4:35 AM 56.7 °F - 55.6 °F 96% 29.81 in 10.0 mi WSW 6.9 mph - N/A   Overcast
4:55 AM 56.5 °F - 55.6 °F 97% 29.82 in 10.0 mi WSW 5.8 mph - N/A   Overcast
5:15 AM 56.1 °F - 55.4 °F 97% 29.83 in 10.0 mi West 4.6 mph - N/A   Overcast
5:35 AM 56.3 °F - 55.2 °F 96% 29.84 in 10.0 mi WNW 12.7 mph - N/A   Overcast
5:55 AM 53.6 °F - 50.2 °F 88% 29.87 in 10.0 mi NW 13.8 mph - N/A   Overcast
6:15 AM 51.1 °F - 45.3 °F 81% 29.89 in 10.0 mi WNW 10.4 mph 21.9 mph N/A   Overcast
6:35 AM 50.2 °F - 43.2 °F 77% 29.90 in 10.0 mi WNW 13.8 mph - N/A   Mostly Cloudy
6:55 AM 48.6 °F - 41.7 °F 77% 29.92 in 10.0 mi NW 16.1 mph - N/A   Mostly Cloudy
7:15 AM 47.1 °F - 40.8 °F 79% 29.94 in 10.0 mi NW 10.4 mph - N/A   Scattered Clouds
7:35 AM 46.8 °F - 41.0 °F 80% 29.96 in 10.0 mi NW 6.9 mph - N/A   Clear
7:55 AM 47.1 °F - 41.9 °F 82% 29.98 in 10.0 mi WNW 8.1 mph - N/A   Clear
8:15 AM 47.3 °F - 40.8 °F 78% 29.99 in 10.0 mi NW 8.1 mph - N/A   Clear
8:35 AM 48.0 °F - 41.0 °F 77% 30.00 in 10.0 mi NW 6.9 mph - N/A   Clear
8:55 AM 48.6 °F - 41.7 °F 77% 30.00 in 10.0 mi NW 10.4 mph - N/A   Clear
9:15 AM 48.6 °F - 41.5 °F 77% 30.01 in 10.0 mi WNW 10.4 mph - N/A   Clear
9:35 AM 48.9 °F - 41.5 °F 76% 30.02 in 10.0 mi NW 8.1 mph - N/A   Clear
9:55 AM 49.5 °F - 42.1 °F 76% 30.03 in 10.0 mi NNW 6.9 mph - N/A   Scattered Clouds
10:15 AM 49.8 °F - 41.7 °F 74% 30.03 in 10.0 mi NNW 10.4 mph - N/A   Scattered Clouds
10:35 AM 49.8 °F - 40.8 °F 71% 30.04 in 10.0 mi NW 3.5 mph - N/A   Clear
10:55 AM 50.7 °F - 41.5 °F 71% 30.04 in 10.0 mi North 8.1 mph - N/A   Clear
11:15 AM 51.8 °F - 42.3 °F 70% 30.04 in 10.0 mi NNE 8.1 mph - N/A   Clear
11:35 AM 52.3 °F - 42.3 °F 69% 30.04 in 10.0 mi North 6.9 mph - N/A   Clear
11:55 AM 52.9 °F - 41.7 °F 66% 30.04 in 10.0 mi North 4.6 mph - N/A   Clear
12:15 PM 53.4 °F - 41.9 °F 65% 30.04 in 10.0 mi North 8.1 mph - N/A   Clear
12:35 PM 54.7 °F - 42.8 °F 64% 30.04 in 10.0 mi NNE 6.9 mph - N/A   Clear
12:55 PM 55.4 °F - 42.8 °F 63% 30.04 in 10.0 mi North 4.6 mph - N/A   Clear
1:15 PM 55.2 °F - 42.3 °F 62% 30.04 in 10.0 mi NE 4.6 mph - N/A   Clear
1:35 PM 55.8 °F - 42.3 °F 60% 30.04 in 10.0 mi NNE 8.1 mph - N/A   Clear
1:55 PM 57.0 °F - 43.3 °F 60% 30.04 in 10.0 mi NE 10.4 mph - N/A   Clear
2:15 PM 57.0 °F - 42.6 °F 59% 30.03 in 10.0 mi North 8.1 mph - N/A   Clear
2:35 PM 57.7 °F - 43.3 °F 59% 30.02 in 10.0 mi NE 5.8 mph - N/A   Clear
2:55 PM 57.9 °F - 42.3 °F 56% 30.01 in 10.0 mi North 5.8 mph - N/A   Clear
3:15 PM 58.5 °F - 43.7 °F 58% 30.01 in 10.0 mi ENE 9.2 mph - N/A   Clear
3:35 PM 58.3 °F - 43.5 °F 58% 30.01 in 10.0 mi NNE 9.2 mph - N/A   Clear
3:55 PM 58.6 °F - 43.2 °F 56% 30.00 in 10.0 mi NNE 11.5 mph - N/A   Clear
4:15 PM 58.5 °F - 42.6 °F 56% 30.00 in 10.0 mi NNE 6.9 mph - N/A   Clear
4:35 PM 58.8 °F - 42.8 °F 55% 30.01 in 10.0 mi NE 6.9 mph - N/A   Clear
4:55 PM 58.6 °F - 42.8 °F 56% 30.00 in 10.0 mi NE 9.2 mph - N/A   Clear
5:15 PM 57.4 °F - 42.1 °F 57% 30.00 in 10.0 mi NNE 9.2 mph - N/A   Clear
5:35 PM 56.8 °F - 42.4 °F 59% 30.01 in 10.0 mi NE 6.9 mph - N/A   Clear
5:55 PM 56.7 °F - 43.0 °F 60% 30.01 in 10.0 mi NE 5.8 mph - N/A   Clear
6:15 PM 56.5 °F - 42.8 °F 60% 30.03 in 10.0 mi NNE 5.8 mph - N/A   Clear
6:35 PM 55.6 °F - 43.0 °F 63% 30.04 in 10.0 mi NNE 9.2 mph - N/A   Clear
6:55 PM 54.7 °F - 43.0 °F 65% 30.04 in 10.0 mi North 8.1 mph - N/A   Clear
7:15 PM 54.1 °F - 43.2 °F 66% 30.04 in 10.0 mi North 6.9 mph - N/A   Clear
7:35 PM 53.6 °F - 42.8 °F 67% 30.05 in 10.0 mi North 9.2 mph - N/A   Clear
7:55 PM 52.5 °F - 42.8 °F 70% 30.05 in 10.0 mi North 6.9 mph - N/A   Clear
8:15 PM 51.8 °F - 42.1 °F 69% 30.05 in 10.0 mi North 11.5 mph - N/A   Clear
8:35 PM 50.9 °F - 41.9 °F 71% 30.05 in 10.0 mi North 8.1 mph - N/A   Clear
8:55 PM 50.0 °F - 41.5 °F 73% 30.06 in 10.0 mi North 8.1 mph - N/A   Clear
9:15 PM 49.6 °F - 41.4 °F 73% 30.07 in 10.0 mi North 9.2 mph - N/A   Clear
9:35 PM 49.5 °F - 41.2 °F 73% 30.07 in 10.0 mi North 10.4 mph - N/A   Scattered Clouds
9:55 PM 49.1 °F - 41.5 °F 75% 30.06 in 10.0 mi NNE 9.2 mph - N/A   Scattered Clouds
10:15 PM 48.7 °F - 41.4 °F 76% 30.04 in 10.0 mi North 11.5 mph 16.1 mph N/A   Scattered Clouds
10:35 PM 48.2 °F - 41.0 °F 76% 30.04 in 10.0 mi North 12.7 mph - N/A   Scattered Clouds
10:55 PM 47.8 °F - 41.0 °F 77% 30.05 in 10.0 mi North 8.1 mph - N/A   Light Drizzle
11:15 PM 47.5 °F - 42.1 °F 82% 30.10 in 10.0 mi WNW 3.5 mph - N/A Rain , Thunderstorm Light Thunderstorms and Rain
11:35 PM 45.9 °F 42.3 °F 43.2 °F 90% 30.08 in 1.5 mi North 6.9 mph - 0.16 in   Unknown
11:55 PM 45.1 °F 39.9 °F 43.5 °F 94% 30.07 in 4.0 mi NNW 10.4 mph - 0.20 in   Overcast